Point, Texas
Current Conditions -  °F | °C
As of 4:55 PM on Thursday 20 Nov 2014 (Local Time) from KGVT Reporting Station
Scattered Clouds Scattered Clouds  
Wind Chill: 66°   Ceiling: Unl
Heat Index: 66°   Visibility: 10mi
Dew Point: 52°   Wind: 7mph
Humidity: 60%   Direction: 150°SSE
Pressure: 30.02"   Gusts: NA
Location:  32.93°N, 95.87°W
Report Text: KGVT 202255Z AUTO 15006KT 10SM SCT044 SCT060 19/11 A3002 RMK AO2
Loading
Personal Weather Stations






























Interactive Weather Map New forecast layout! Learn more

10-Day Weather Forecast

Advertisements
Track Severe Weather on mobile